sensor_id;sensor_type;location;lat;lon;timestamp;P1;durP1;ratioP1;P2;durP2;ratioP2
68942;SDS011;60852;52.190;4.422;2023-02-28T00:00:14;5.05;;;5.04;;
68942;SDS011;60852;52.190;4.422;2023-02-28T00:02:41;4.81;;;4.81;;
68942;SDS011;60852;52.190;4.422;2023-02-28T00:05:08;4.81;;;4.81;;
68942;SDS011;60852;52.190;4.422;2023-02-28T00:07:35;4.79;;;4.77;;
68942;SDS011;60852;52.190;4.422;2023-02-28T00:10:01;4.93;;;4.92;;
68942;SDS011;60852;52.190;4.422;2023-02-28T00:12:27;4.96;;;4.94;;
68942;SDS011;60852;52.190;4.422;2023-02-28T00:14:53;5.13;;;5.10;;
68942;SDS011;60852;52.190;4.422;2023-02-28T00:17:18;5.05;;;5.04;;
68942;SDS011;60852;52.190;4.422;2023-02-28T00:19:49;5.53;;;5.51;;
68942;SDS011;60852;52.190;4.422;2023-02-28T00:22:17;5.62;;;5.59;;
68942;SDS011;60852;52.190;4.422;2023-02-28T00:24:44;5.89;;;5.86;;
68942;SDS011;60852;52.190;4.422;2023-02-28T00:27:10;5.85;;;5.82;;
68942;SDS011;60852;52.190;4.422;2023-02-28T00:29:35;6.10;;;6.04;;
68942;SDS011;60852;52.190;4.422;2023-02-28T00:32:01;5.95;;;5.87;;
68942;SDS011;60852;52.190;4.422;2023-02-28T00:34:26;6.07;;;6.04;;
68942;SDS011;60852;52.190;4.422;2023-02-28T00:36:52;5.87;;;5.80;;
68942;SDS011;60852;52.190;4.422;2023-02-28T00:39:17;5.40;;;5.39;;
68942;SDS011;60852;52.190;4.422;2023-02-28T00:41:43;5.35;;;5.35;;
68942;SDS011;60852;52.190;4.422;2023-02-28T00:44:08;5.33;;;5.32;;
68942;SDS011;60852;52.190;4.422;2023-02-28T00:46:34;5.34;;;5.33;;
68942;SDS011;60852;52.190;4.422;2023-02-28T00:49:00;5.31;;;5.29;;
68942;SDS011;60852;52.190;4.422;2023-02-28T00:51:25;5.13;;;5.13;;
68942;SDS011;60852;52.190;4.422;2023-02-28T00:53:51;5.19;;;5.19;;
68942;SDS011;60852;52.190;4.422;2023-02-28T00:56:16;5.20;;;5.17;;
68942;SDS011;60852;52.190;4.422;2023-02-28T00:58:41;5.44;;;5.42;;
68942;SDS011;60852;52.190;4.422;2023-02-28T01:01:07;5.40;;;5.39;;
68942;SDS011;60852;52.190;4.422;2023-02-28T01:03:32;5.46;;;5.45;;
68942;SDS011;60852;52.190;4.422;2023-02-28T01:05:58;5.54;;;5.52;;
68942;SDS011;60852;52.190;4.422;2023-02-28T01:08:24;5.80;;;5.79;;
68942;SDS011;60852;52.190;4.422;2023-02-28T01:10:51;5.67;;;5.66;;
68942;SDS011;60852;52.190;4.422;2023-02-28T01:13:17;5.49;;;5.49;;
68942;SDS011;60852;52.190;4.422;2023-02-28T01:15:45;5.89;;;5.88;;
68942;SDS011;60852;52.190;4.422;2023-02-28T01:18:16;5.81;;;5.77;;
68942;SDS011;60852;52.190;4.422;2023-02-28T01:20:41;5.77;;;5.74;;
68942;SDS011;60852;52.190;4.422;2023-02-28T01:23:07;5.58;;;5.58;;
68942;SDS011;60852;52.190;4.422;2023-02-28T01:25:34;5.62;;;5.60;;
68942;SDS011;60852;52.190;4.422;2023-02-28T01:28:00;5.55;;;5.55;;
68942;SDS011;60852;52.190;4.422;2023-02-28T01:30:25;5.70;;;5.70;;
68942;SDS011;60852;52.190;4.422;2023-02-28T01:32:51;6.11;;;6.10;;
68942;SDS011;60852;52.190;4.422;2023-02-28T01:35:18;5.68;;;5.67;;
68942;SDS011;60852;52.190;4.422;2023-02-28T01:37:44;5.87;;;5.85;;
68942;SDS011;60852;52.190;4.422;2023-02-28T01:40:10;5.59;;;5.59;;
68942;SDS011;60852;52.190;4.422;2023-02-28T01:42:36;5.66;;;5.66;;
68942;SDS011;60852;52.190;4.422;2023-02-28T01:47:58;5.37;;;5.37;;
68942;SDS011;60852;52.190;4.422;2023-02-28T01:50:29;5.52;;;5.49;;
68942;SDS011;60852;52.190;4.422;2023-02-28T01:53:00;5.57;;;5.57;;
68942;SDS011;60852;52.190;4.422;2023-02-28T01:55:29;5.60;;;5.60;;
68942;SDS011;60852;52.190;4.422;2023-02-28T01:57:58;5.66;;;5.66;;
68942;SDS011;60852;52.190;4.422;2023-02-28T02:00:28;5.78;;;5.78;;
68942;SDS011;60852;52.190;4.422;2023-02-28T02:02:55;5.65;;;5.65;;
68942;SDS011;60852;52.190;4.422;2023-02-28T02:05:25;5.88;;;5.88;;
68942;SDS011;60852;52.190;4.422;2023-02-28T02:07:57;6.23;;;6.23;;
68942;SDS011;60852;52.190;4.422;2023-02-28T02:10:47;6.29;;;6.29;;
68942;SDS011;60852;52.190;4.422;2023-02-28T02:13:29;5.90;;;5.90;;
68942;SDS011;60852;52.190;4.422;2023-02-28T02:16:28;6.03;;;6.03;;
68942;SDS011;60852;52.190;4.422;2023-02-28T02:32:44;6.27;;;6.26;;
68942;SDS011;60852;52.190;4.422;2023-02-28T02:35:27;6.25;;;6.24;;
68942;SDS011;60852;52.190;4.422;2023-02-28T02:41:23;6.33;;;6.33;;
68942;SDS011;60852;52.190;4.422;2023-02-28T02:44:15;6.43;;;6.43;;
68942;SDS011;60852;52.190;4.422;2023-02-28T02:46:53;6.45;;;6.45;;
68942;SDS011;60852;52.190;4.422;2023-02-28T02:49:28;6.03;;;6.03;;
68942;SDS011;60852;52.190;4.422;2023-02-28T02:52:00;6.13;;;6.13;;
68942;SDS011;60852;52.190;4.422;2023-02-28T02:54:33;5.91;;;5.91;;
68942;SDS011;60852;52.190;4.422;2023-02-28T02:57:04;6.14;;;6.14;;
68942;SDS011;60852;52.190;4.422;2023-02-28T02:59:35;5.90;;;5.90;;
68942;SDS011;60852;52.190;4.422;2023-02-28T03:02:05;5.95;;;5.95;;
68942;SDS011;60852;52.190;4.422;2023-02-28T03:04:36;6.00;;;6.00;;
68942;SDS011;60852;52.190;4.422;2023-02-28T03:07:17;6.31;;;6.31;;
68942;SDS011;60852;52.190;4.422;2023-02-28T03:09:53;5.99;;;5.98;;
68942;SDS011;60852;52.190;4.422;2023-02-28T03:12:20;6.02;;;6.02;;
68942;SDS011;60852;52.190;4.422;2023-02-28T03:17:57;6.12;;;6.12;;
68942;SDS011;60852;52.190;4.422;2023-02-28T03:23:17;6.48;;;6.47;;
68942;SDS011;60852;52.190;4.422;2023-02-28T03:26:04;5.88;;;5.88;;
68942;SDS011;60852;52.190;4.422;2023-02-28T03:29:25;6.21;;;6.21;;
68942;SDS011;60852;52.190;4.422;2023-02-28T03:31:41;6.35;;;6.35;;
68942;SDS011;60852;52.190;4.422;2023-02-28T03:34:33;6.71;;;6.71;;
68942;SDS011;60852;52.190;4.422;2023-02-28T03:37:07;6.50;;;6.50;;
68942;SDS011;60852;52.190;4.422;2023-02-28T03:39:42;6.42;;;6.42;;
68942;SDS011;60852;52.190;4.422;2023-02-28T03:42:19;6.27;;;6.27;;
68942;SDS011;60852;52.190;4.422;2023-02-28T03:44:51;6.64;;;6.64;;
68942;SDS011;60852;52.190;4.422;2023-02-28T03:47:31;6.37;;;6.37;;
68942;SDS011;60852;52.190;4.422;2023-02-28T03:50:13;6.26;;;6.25;;
68942;SDS011;60852;52.190;4.422;2023-02-28T03:52:47;6.36;;;6.36;;
68942;SDS011;60852;52.190;4.422;2023-02-28T03:55:17;6.43;;;6.43;;
68942;SDS011;60852;52.190;4.422;2023-02-28T03:57:57;6.70;;;6.70;;
68942;SDS011;60852;52.190;4.422;2023-02-28T04:00:55;6.75;;;6.74;;
68942;SDS011;60852;52.190;4.422;2023-02-28T04:03:34;6.33;;;6.33;;
68942;SDS011;60852;52.190;4.422;2023-02-28T04:06:00;6.61;;;6.61;;
68942;SDS011;60852;52.190;4.422;2023-02-28T04:08:26;6.40;;;6.38;;
68942;SDS011;60852;52.190;4.422;2023-02-28T04:10:54;6.57;;;6.55;;
68942;SDS011;60852;52.190;4.422;2023-02-28T04:13:28;6.47;;;6.47;;
68942;SDS011;60852;52.190;4.422;2023-02-28T04:15:53;6.49;;;6.49;;
68942;SDS011;60852;52.190;4.422;2023-02-28T04:18:18;6.61;;;6.59;;
68942;SDS011;60852;52.190;4.422;2023-02-28T04:20:44;6.49;;;6.47;;
68942;SDS011;60852;52.190;4.422;2023-02-28T04:23:09;6.61;;;6.59;;
68942;SDS011;60852;52.190;4.422;2023-02-28T04:25:35;6.52;;;6.48;;
68942;SDS011;60852;52.190;4.422;2023-02-28T04:28:00;6.25;;;6.25;;
68942;SDS011;60852;52.190;4.422;2023-02-28T04:30:25;6.31;;;6.31;;
68942;SDS011;60852;52.190;4.422;2023-02-28T04:32:51;10.73;;;10.67;;
68942;SDS011;60852;52.190;4.422;2023-02-28T04:35:16;11.45;;;11.21;;
68942;SDS011;60852;52.190;4.422;2023-02-28T04:37:42;7.55;;;7.45;;
68942;SDS011;60852;52.190;4.422;2023-02-28T04:40:07;7.16;;;7.06;;
68942;SDS011;60852;52.190;4.422;2023-02-28T04:42:33;6.60;;;6.60;;
68942;SDS011;60852;52.190;4.422;2023-02-28T04:45:01;6.52;;;6.52;;
68942;SDS011;60852;52.190;4.422;2023-02-28T04:47:28;6.67;;;6.67;;
68942;SDS011;60852;52.190;4.422;2023-02-28T04:49:53;12.65;;;12.54;;
68942;SDS011;60852;52.190;4.422;2023-02-28T04:52:19;19.70;;;19.56;;
68942;SDS011;60852;52.190;4.422;2023-02-28T04:54:44;16.55;;;16.54;;
68942;SDS011;60852;52.190;4.422;2023-02-28T04:57:10;9.85;;;9.85;;
68942;SDS011;60852;52.190;4.422;2023-02-28T04:59:35;10.32;;;10.32;;
68942;SDS011;60852;52.190;4.422;2023-02-28T05:02:01;7.47;;;7.47;;
68942;SDS011;60852;52.190;4.422;2023-02-28T05:04:32;6.84;;;6.84;;
68942;SDS011;60852;52.190;4.422;2023-02-28T05:07:01;6.29;;;6.29;;
68942;SDS011;60852;52.190;4.422;2023-02-28T05:09:28;6.25;;;6.25;;
68942;SDS011;60852;52.190;4.422;2023-02-28T05:11:54;6.47;;;6.47;;
68942;SDS011;60852;52.190;4.422;2023-02-28T05:14:20;10.19;;;10.10;;
68942;SDS011;60852;52.190;4.422;2023-02-28T05:16:46;7.89;;;7.89;;
68942;SDS011;60852;52.190;4.422;2023-02-28T05:19:12;8.84;;;8.84;;
68942;SDS011;60852;52.190;4.422;2023-02-28T05:21:38;7.56;;;7.56;;
68942;SDS011;60852;52.190;4.422;2023-02-28T05:24:08;7.54;;;7.54;;
68942;SDS011;60852;52.190;4.422;2023-02-28T05:26:36;7.72;;;7.72;;
68942;SDS011;60852;52.190;4.422;2023-02-28T05:29:03;8.84;;;8.83;;
68942;SDS011;60852;52.190;4.422;2023-02-28T05:31:30;8.73;;;8.72;;
68942;SDS011;60852;52.190;4.422;2023-02-28T05:33:56;9.92;;;9.91;;
68942;SDS011;60852;52.190;4.422;2023-02-28T05:36:21;9.73;;;9.73;;
68942;SDS011;60852;52.190;4.422;2023-02-28T05:38:47;12.90;;;12.79;;
68942;SDS011;60852;52.190;4.422;2023-02-28T05:41:13;10.07;;;10.03;;
68942;SDS011;60852;52.190;4.422;2023-02-28T05:43:39;9.68;;;9.68;;
68942;SDS011;60852;52.190;4.422;2023-02-28T05:46:05;11.38;;;11.32;;
68942;SDS011;60852;52.190;4.422;2023-02-28T05:48:33;11.37;;;11.31;;
68942;SDS011;60852;52.190;4.422;2023-02-28T05:51:00;10.80;;;10.74;;
68942;SDS011;60852;52.190;4.422;2023-02-28T05:53:26;9.00;;;8.95;;
68942;SDS011;60852;52.190;4.422;2023-02-28T05:55:51;9.22;;;9.22;;
68942;SDS011;60852;52.190;4.422;2023-02-28T05:58:17;10.01;;;9.99;;
68942;SDS011;60852;52.190;4.422;2023-02-28T06:00:43;14.72;;;14.67;;
68942;SDS011;60852;52.190;4.422;2023-02-28T06:03:09;15.72;;;15.69;;
68942;SDS011;60852;52.190;4.422;2023-02-28T06:05:34;13.06;;;13.02;;
68942;SDS011;60852;52.190;4.422;2023-02-28T06:08:00;11.17;;;11.16;;
68942;SDS011;60852;52.190;4.422;2023-02-28T06:10:25;12.30;;;12.18;;
68942;SDS011;60852;52.190;4.422;2023-02-28T06:12:51;13.92;;;13.92;;
68942;SDS011;60852;52.190;4.422;2023-02-28T06:15:16;12.42;;;12.41;;
68942;SDS011;60852;52.190;4.422;2023-02-28T06:17:42;11.68;;;11.63;;
68942;SDS011;60852;52.190;4.422;2023-02-28T06:20:09;11.83;;;11.77;;
68942;SDS011;60852;52.190;4.422;2023-02-28T06:22:38;13.52;;;13.51;;
68942;SDS011;60852;52.190;4.422;2023-02-28T06:25:04;10.88;;;10.65;;
68942;SDS011;60852;52.190;4.422;2023-02-28T06:27:32;10.00;;;9.93;;
68942;SDS011;60852;52.190;4.422;2023-02-28T06:29:58;11.50;;;11.34;;
68942;SDS011;60852;52.190;4.422;2023-02-28T06:32:24;11.40;;;11.33;;
68942;SDS011;60852;52.190;4.422;2023-02-28T06:34:49;10.77;;;10.76;;
68942;SDS011;60852;52.190;4.422;2023-02-28T06:37:15;12.30;;;12.29;;
68942;SDS011;60852;52.190;4.422;2023-02-28T06:39:41;12.68;;;12.60;;
68942;SDS011;60852;52.190;4.422;2023-02-28T06:42:07;14.46;;;14.29;;
68942;SDS011;60852;52.190;4.422;2023-02-28T06:44:32;14.50;;;14.45;;
68942;SDS011;60852;52.190;4.422;2023-02-28T06:47:00;15.80;;;15.74;;
68942;SDS011;60852;52.190;4.422;2023-02-28T06:49:30;19.38;;;18.99;;
68942;SDS011;60852;52.190;4.422;2023-02-28T06:51:57;13.46;;;13.23;;
68942;SDS011;60852;52.190;4.422;2023-02-28T06:54:23;17.09;;;16.78;;
68942;SDS011;60852;52.190;4.422;2023-02-28T06:56:49;14.17;;;13.75;;
68942;SDS011;60852;52.190;4.422;2023-02-28T06:59:14;12.89;;;12.55;;
68942;SDS011;60852;52.190;4.422;2023-02-28T07:01:40;12.57;;;12.56;;
68942;SDS011;60852;52.190;4.422;2023-02-28T07:04:06;12.43;;;12.40;;
68942;SDS011;60852;52.190;4.422;2023-02-28T07:06:31;12.39;;;12.38;;
68942;SDS011;60852;52.190;4.422;2023-02-28T07:08:57;12.77;;;12.74;;
68942;SDS011;60852;52.190;4.422;2023-02-28T07:11:23;12.80;;;12.70;;
68942;SDS011;60852;52.190;4.422;2023-02-28T07:13:51;13.85;;;13.43;;
68942;SDS011;60852;52.190;4.422;2023-02-28T07:16:17;13.66;;;13.50;;
68942;SDS011;60852;52.190;4.422;2023-02-28T07:18:43;12.56;;;12.56;;
68942;SDS011;60852;52.190;4.422;2023-02-28T07:21:09;12.93;;;12.90;;
68942;SDS011;60852;52.190;4.422;2023-02-28T07:23:36;13.10;;;13.10;;
68942;SDS011;60852;52.190;4.422;2023-02-28T07:26:07;13.05;;;12.87;;
68942;SDS011;60852;52.190;4.422;2023-02-28T07:28:40;14.37;;;14.27;;
68942;SDS011;60852;52.190;4.422;2023-02-28T07:31:08;15.01;;;14.96;;
68942;SDS011;60852;52.190;4.422;2023-02-28T07:33:35;15.46;;;15.45;;
68942;SDS011;60852;52.190;4.422;2023-02-28T07:36:04;17.84;;;17.83;;
68942;SDS011;60852;52.190;4.422;2023-02-28T07:38:35;16.80;;;16.80;;
68942;SDS011;60852;52.190;4.422;2023-02-28T07:41:01;12.39;;;12.39;;
68942;SDS011;60852;52.190;4.422;2023-02-28T07:43:30;11.33;;;11.33;;
68942;SDS011;60852;52.190;4.422;2023-02-28T07:46:01;10.44;;;10.44;;
68942;SDS011;60852;52.190;4.422;2023-02-28T07:48:31;10.25;;;10.25;;
68942;SDS011;60852;52.190;4.422;2023-02-28T07:50:57;9.49;;;9.49;;
68942;SDS011;60852;52.190;4.422;2023-02-28T07:53:23;9.69;;;9.69;;
68942;SDS011;60852;52.190;4.422;2023-02-28T07:55:49;8.37;;;8.37;;
68942;SDS011;60852;52.190;4.422;2023-02-28T07:58:14;9.81;;;9.81;;
68942;SDS011;60852;52.190;4.422;2023-02-28T08:00:40;9.95;;;9.95;;
68942;SDS011;60852;52.190;4.422;2023-02-28T08:03:05;12.10;;;12.01;;
68942;SDS011;60852;52.190;4.422;2023-02-28T08:05:31;9.11;;;9.11;;
68942;SDS011;60852;52.190;4.422;2023-02-28T08:07:57;9.36;;;9.34;;
68942;SDS011;60852;52.190;4.422;2023-02-28T08:10:22;9.62;;;9.62;;
68942;SDS011;60852;52.190;4.422;2023-02-28T08:12:48;9.35;;;9.35;;
68942;SDS011;60852;52.190;4.422;2023-02-28T08:15:15;10.38;;;10.38;;
68942;SDS011;60852;52.190;4.422;2023-02-28T08:17:40;8.64;;;8.64;;
68942;SDS011;60852;52.190;4.422;2023-02-28T08:20:06;8.24;;;8.24;;
68942;SDS011;60852;52.190;4.422;2023-02-28T08:22:32;8.13;;;8.13;;
68942;SDS011;60852;52.190;4.422;2023-02-28T08:24:57;7.84;;;7.84;;
68942;SDS011;60852;52.190;4.422;2023-02-28T08:27:23;7.81;;;7.81;;
68942;SDS011;60852;52.190;4.422;2023-02-28T08:29:49;7.32;;;7.32;;
68942;SDS011;60852;52.190;4.422;2023-02-28T08:32:14;7.65;;;7.65;;
68942;SDS011;60852;52.190;4.422;2023-02-28T08:34:40;7.47;;;7.47;;
68942;SDS011;60852;52.190;4.422;2023-02-28T08:37:05;7.89;;;7.89;;
68942;SDS011;60852;52.190;4.422;2023-02-28T08:39:33;7.42;;;7.42;;
68942;SDS011;60852;52.190;4.422;2023-02-28T08:42:01;7.73;;;7.73;;
68942;SDS011;60852;52.190;4.422;2023-02-28T08:44:27;8.73;;;8.73;;
68942;SDS011;60852;52.190;4.422;2023-02-28T08:46:53;8.33;;;8.33;;
68942;SDS011;60852;52.190;4.422;2023-02-28T08:49:18;8.16;;;8.16;;
68942;SDS011;60852;52.190;4.422;2023-02-28T08:51:44;11.84;;;11.84;;
68942;SDS011;60852;52.190;4.422;2023-02-28T08:54:09;12.36;;;12.36;;
68942;SDS011;60852;52.190;4.422;2023-02-28T08:56:37;11.72;;;11.72;;
68942;SDS011;60852;52.190;4.422;2023-02-28T08:59:03;11.96;;;11.96;;
68942;SDS011;60852;52.190;4.422;2023-02-28T09:01:29;11.82;;;11.82;;
68942;SDS011;60852;52.190;4.422;2023-02-28T09:03:57;11.84;;;11.84;;
68942;SDS011;60852;52.190;4.422;2023-02-28T09:06:25;10.99;;;10.99;;
68942;SDS011;60852;52.190;4.422;2023-02-28T09:08:51;8.96;;;8.96;;
68942;SDS011;60852;52.190;4.422;2023-02-28T09:11:18;8.46;;;8.46;;
68942;SDS011;60852;52.190;4.422;2023-02-28T09:13:44;8.95;;;8.95;;
68942;SDS011;60852;52.190;4.422;2023-02-28T09:16:12;8.99;;;8.99;;
68942;SDS011;60852;52.190;4.422;2023-02-28T09:18:39;8.02;;;8.02;;
68942;SDS011;60852;52.190;4.422;2023-02-28T09:21:06;7.82;;;7.82;;
68942;SDS011;60852;52.190;4.422;2023-02-28T09:23:33;8.07;;;8.07;;
68942;SDS011;60852;52.190;4.422;2023-02-28T09:26:00;8.51;;;8.51;;
68942;SDS011;60852;52.190;4.422;2023-02-28T09:28:25;8.29;;;8.29;;
68942;SDS011;60852;52.190;4.422;2023-02-28T09:30:52;8.00;;;8.00;;
68942;SDS011;60852;52.190;4.422;2023-02-28T09:33:20;7.67;;;7.67;;
68942;SDS011;60852;52.190;4.422;2023-02-28T09:35:49;7.60;;;7.60;;
68942;SDS011;60852;52.190;4.422;2023-02-28T09:38:16;7.14;;;7.14;;
68942;SDS011;60852;52.190;4.422;2023-02-28T09:40:47;7.40;;;7.40;;
68942;SDS011;60852;52.190;4.422;2023-02-28T09:43:16;6.62;;;6.62;;
68942;SDS011;60852;52.190;4.422;2023-02-28T09:45:48;6.66;;;6.66;;
68942;SDS011;60852;52.190;4.422;2023-02-28T09:48:31;7.07;;;7.07;;
68942;SDS011;60852;52.190;4.422;2023-02-28T09:53:54;7.57;;;7.57;;
68942;SDS011;60852;52.190;4.422;2023-02-28T09:56:21;7.67;;;7.67;;
68942;SDS011;60852;52.190;4.422;2023-02-28T09:58:59;8.61;;;8.59;;
68942;SDS011;60852;52.190;4.422;2023-02-28T10:01:33;7.91;;;7.91;;
68942;SDS011;60852;52.190;4.422;2023-02-28T10:04:09;7.58;;;7.58;;
68942;SDS011;60852;52.190;4.422;2023-02-28T10:06:46;7.40;;;7.40;;
68942;SDS011;60852;52.190;4.422;2023-02-28T10:09:17;7.63;;;7.63;;
68942;SDS011;60852;52.190;4.422;2023-02-28T10:11:52;7.67;;;7.67;;
68942;SDS011;60852;52.190;4.422;2023-02-28T10:14:25;7.42;;;7.42;;
68942;SDS011;60852;52.190;4.422;2023-02-28T10:17:11;7.48;;;7.48;;
68942;SDS011;60852;52.190;4.422;2023-02-28T10:24:58;6.14;;;6.14;;
68942;SDS011;60852;52.190;4.422;2023-02-28T10:27:31;5.89;;;5.89;;
68942;SDS011;60852;52.190;4.422;2023-02-28T10:29:58;5.52;;;5.52;;
68942;SDS011;60852;52.190;4.422;2023-02-28T10:32:32;5.51;;;5.51;;
68942;SDS011;60852;52.190;4.422;2023-02-28T10:35:09;5.18;;;5.18;;
68942;SDS011;60852;52.190;4.422;2023-02-28T10:37:43;5.42;;;5.42;;
68942;SDS011;60852;52.190;4.422;2023-02-28T10:45:30;5.57;;;5.57;;
68942;SDS011;60852;52.190;4.422;2023-02-28T10:47:59;5.26;;;5.26;;
68942;SDS011;60852;52.190;4.422;2023-02-28T10:52:52;5.75;;;5.75;;
68942;SDS011;60852;52.190;4.422;2023-02-28T10:55:21;5.60;;;5.60;;
68942;SDS011;60852;52.190;4.422;2023-02-28T10:57:50;5.99;;;5.99;;
68942;SDS011;60852;52.190;4.422;2023-02-28T11:02:44;6.33;;;6.33;;
68942;SDS011;60852;52.190;4.422;2023-02-28T11:05:24;5.86;;;5.86;;
68942;SDS011;60852;52.190;4.422;2023-02-28T11:07:54;5.47;;;5.47;;
68942;SDS011;60852;52.190;4.422;2023-02-28T11:10:30;5.93;;;5.92;;
68942;SDS011;60852;52.190;4.422;2023-02-28T11:13:00;5.45;;;5.44;;
68942;SDS011;60852;52.190;4.422;2023-02-28T11:15:27;6.04;;;6.02;;
68942;SDS011;60852;52.190;4.422;2023-02-28T11:18:17;5.46;;;5.46;;
68942;SDS011;60852;52.190;4.422;2023-02-28T11:20:53;5.61;;;5.61;;
68942;SDS011;60852;52.190;4.422;2023-02-28T11:23:24;5.94;;;5.94;;
68942;SDS011;60852;52.190;4.422;2023-02-28T11:25:54;5.75;;;5.75;;
68942;SDS011;60852;52.190;4.422;2023-02-28T11:28:26;5.47;;;5.47;;
68942;SDS011;60852;52.190;4.422;2023-02-28T11:31:00;5.31;;;5.31;;
68942;SDS011;60852;52.190;4.422;2023-02-28T11:33:30;5.36;;;5.36;;
68942;SDS011;60852;52.190;4.422;2023-02-28T11:36:02;5.39;;;5.39;;
68942;SDS011;60852;52.190;4.422;2023-02-28T11:38:34;5.59;;;5.59;;
68942;SDS011;60852;52.190;4.422;2023-02-28T11:49:37;5.85;;;5.85;;
68942;SDS011;60852;52.190;4.422;2023-02-28T11:55:20;28.92;;;28.26;;
68942;SDS011;60852;52.190;4.422;2023-02-28T12:03:34;10.49;;;10.44;;
68942;SDS011;60852;52.190;4.422;2023-02-28T12:19:31;6.87;;;6.87;;
68942;SDS011;60852;52.190;4.422;2023-02-28T12:22:32;5.63;;;5.63;;
68942;SDS011;60852;52.190;4.422;2023-02-28T12:25:22;6.07;;;6.07;;
68942;SDS011;60852;52.190;4.422;2023-02-28T12:27:55;6.12;;;6.12;;
68942;SDS011;60852;52.190;4.422;2023-02-28T12:30:22;5.95;;;5.95;;
68942;SDS011;60852;52.190;4.422;2023-02-28T12:32:56;5.97;;;5.97;;
68942;SDS011;60852;52.190;4.422;2023-02-28T12:38:19;5.39;;;5.39;;
68942;SDS011;60852;52.190;4.422;2023-02-28T12:40:50;5.88;;;5.88;;
68942;SDS011;60852;52.190;4.422;2023-02-28T12:43:20;5.80;;;5.80;;
68942;SDS011;60852;52.190;4.422;2023-02-28T12:46:07;5.48;;;5.48;;
68942;SDS011;60852;52.190;4.422;2023-02-28T12:51:09;11.98;;;11.89;;
68942;SDS011;60852;52.190;4.422;2023-02-28T12:54:01;12.73;;;12.36;;
68942;SDS011;60852;52.190;4.422;2023-02-28T12:59:13;5.55;;;5.55;;
68942;SDS011;60852;52.190;4.422;2023-02-28T13:04:32;5.39;;;5.39;;
68942;SDS011;60852;52.190;4.422;2023-02-28T13:09:57;5.00;;;5.00;;
68942;SDS011;60852;52.190;4.422;2023-02-28T13:12:25;5.02;;;5.02;;
68942;SDS011;60852;52.190;4.422;2023-02-28T13:15:01;5.50;;;5.50;;
68942;SDS011;60852;52.190;4.422;2023-02-28T13:17:36;5.31;;;5.31;;
68942;SDS011;60852;52.190;4.422;2023-02-28T13:20:13;5.84;;;5.84;;
68942;SDS011;60852;52.190;4.422;2023-02-28T13:22:44;5.93;;;5.93;;
68942;SDS011;60852;52.190;4.422;2023-02-28T13:28:02;5.68;;;5.68;;
68942;SDS011;60852;52.190;4.422;2023-02-28T13:33:31;5.76;;;5.76;;
68942;SDS011;60852;52.190;4.422;2023-02-28T13:36:09;5.55;;;5.55;;
68942;SDS011;60852;52.190;4.422;2023-02-28T13:38:38;5.52;;;5.52;;
68942;SDS011;60852;52.190;4.422;2023-02-28T13:41:48;5.55;;;5.55;;
68942;SDS011;60852;52.190;4.422;2023-02-28T13:44:00;5.57;;;5.57;;
68942;SDS011;60852;52.190;4.422;2023-02-28T13:54:24;5.54;;;5.54;;
68942;SDS011;60852;52.190;4.422;2023-02-28T14:00:17;5.80;;;5.80;;
68942;SDS011;60852;52.190;4.422;2023-02-28T14:03:00;6.05;;;6.05;;
68942;SDS011;60852;52.190;4.422;2023-02-28T14:05:41;5.48;;;5.48;;
68942;SDS011;60852;52.190;4.422;2023-02-28T14:08:08;5.68;;;5.68;;
68942;SDS011;60852;52.190;4.422;2023-02-28T14:10:46;5.95;;;5.95;;
68942;SDS011;60852;52.190;4.422;2023-02-28T14:16:13;5.99;;;5.99;;
68942;SDS011;60852;52.190;4.422;2023-02-28T14:18:55;6.27;;;6.27;;
68942;SDS011;60852;52.190;4.422;2023-02-28T14:21:29;5.57;;;5.57;;
68942;SDS011;60852;52.190;4.422;2023-02-28T14:32:15;5.42;;;5.42;;
68942;SDS011;60852;52.190;4.422;2023-02-28T14:37:45;5.59;;;5.59;;
68942;SDS011;60852;52.190;4.422;2023-02-28T14:40:19;5.75;;;5.75;;
68942;SDS011;60852;52.190;4.422;2023-02-28T14:42:56;6.03;;;6.03;;
68942;SDS011;60852;52.190;4.422;2023-02-28T14:45:24;5.81;;;5.81;;
68942;SDS011;60852;52.190;4.422;2023-02-28T14:47:55;5.92;;;5.92;;
68942;SDS011;60852;52.190;4.422;2023-02-28T14:50:33;5.84;;;5.84;;
68942;SDS011;60852;52.190;4.422;2023-02-28T14:53:02;5.96;;;5.96;;
68942;SDS011;60852;52.190;4.422;2023-02-28T14:55:30;6.16;;;6.16;;
68942;SDS011;60852;52.190;4.422;2023-02-28T14:58:01;6.09;;;6.09;;
68942;SDS011;60852;52.190;4.422;2023-02-28T15:00:35;6.41;;;6.41;;
68942;SDS011;60852;52.190;4.422;2023-02-28T15:03:19;5.91;;;5.91;;
68942;SDS011;60852;52.190;4.422;2023-02-28T15:05:54;6.30;;;6.30;;
68942;SDS011;60852;52.190;4.422;2023-02-28T15:08:22;6.58;;;6.58;;
68942;SDS011;60852;52.190;4.422;2023-02-28T15:13:22;11.36;;;11.36;;
68942;SDS011;60852;52.190;4.422;2023-02-28T15:16:19;7.07;;;7.07;;
68942;SDS011;60852;52.190;4.422;2023-02-28T15:18:50;7.83;;;7.83;;
68942;SDS011;60852;52.190;4.422;2023-02-28T15:21:31;7.86;;;7.86;;
68942;SDS011;60852;52.190;4.422;2023-02-28T15:24:10;6.37;;;6.37;;
68942;SDS011;60852;52.190;4.422;2023-02-28T15:26:51;5.91;;;5.91;;
68942;SDS011;60852;52.190;4.422;2023-02-28T15:29:23;5.88;;;5.88;;
68942;SDS011;60852;52.190;4.422;2023-02-28T15:32:00;5.56;;;5.56;;
68942;SDS011;60852;52.190;4.422;2023-02-28T15:34:37;6.49;;;6.48;;
68942;SDS011;60852;52.190;4.422;2023-02-28T15:42:59;6.65;;;6.65;;
68942;SDS011;60852;52.190;4.422;2023-02-28T15:45:34;5.94;;;5.94;;
68942;SDS011;60852;52.190;4.422;2023-02-28T15:48:04;5.82;;;5.82;;
68942;SDS011;60852;52.190;4.422;2023-02-28T15:50:38;5.52;;;5.52;;
68942;SDS011;60852;52.190;4.422;2023-02-28T15:53:04;5.80;;;5.80;;
68942;SDS011;60852;52.190;4.422;2023-02-28T15:55:44;5.69;;;5.69;;
68942;SDS011;60852;52.190;4.422;2023-02-28T15:58:11;5.98;;;5.98;;
68942;SDS011;60852;52.190;4.422;2023-02-28T16:00:38;5.59;;;5.59;;
68942;SDS011;60852;52.190;4.422;2023-02-28T16:03:24;5.60;;;5.60;;
68942;SDS011;60852;52.190;4.422;2023-02-28T16:06:15;5.68;;;5.68;;
68942;SDS011;60852;52.190;4.422;2023-02-28T16:08:49;5.44;;;5.44;;
68942;SDS011;60852;52.190;4.422;2023-02-28T16:11:16;5.82;;;5.82;;
68942;SDS011;60852;52.190;4.422;2023-02-28T16:13:42;6.50;;;6.50;;
68942;SDS011;60852;52.190;4.422;2023-02-28T16:16:07;6.30;;;6.30;;
68942;SDS011;60852;52.190;4.422;2023-02-28T16:18:33;6.42;;;6.42;;
68942;SDS011;60852;52.190;4.422;2023-02-28T16:20:58;6.62;;;6.62;;
68942;SDS011;60852;52.190;4.422;2023-02-28T16:23:24;5.79;;;5.79;;
68942;SDS011;60852;52.190;4.422;2023-02-28T16:25:49;5.71;;;5.71;;
68942;SDS011;60852;52.190;4.422;2023-02-28T16:28:24;5.70;;;5.70;;
68942;SDS011;60852;52.190;4.422;2023-02-28T16:30:57;6.24;;;6.24;;
68942;SDS011;60852;52.190;4.422;2023-02-28T16:33:25;5.91;;;5.91;;
68942;SDS011;60852;52.190;4.422;2023-02-28T16:35:51;5.84;;;5.84;;
68942;SDS011;60852;52.190;4.422;2023-02-28T16:38:17;6.09;;;6.09;;
68942;SDS011;60852;52.190;4.422;2023-02-28T16:40:42;5.76;;;5.76;;
68942;SDS011;60852;52.190;4.422;2023-02-28T16:43:27;5.96;;;5.96;;
68942;SDS011;60852;52.190;4.422;2023-02-28T16:45:56;5.65;;;5.65;;
68942;SDS011;60852;52.190;4.422;2023-02-28T16:48:23;6.49;;;6.49;;
68942;SDS011;60852;52.190;4.422;2023-02-28T16:50:50;6.80;;;6.80;;
68942;SDS011;60852;52.190;4.422;2023-02-28T16:53:16;6.80;;;6.80;;
68942;SDS011;60852;52.190;4.422;2023-02-28T16:55:41;6.73;;;6.73;;
68942;SDS011;60852;52.190;4.422;2023-02-28T16:58:10;6.24;;;6.24;;
68942;SDS011;60852;52.190;4.422;2023-02-28T17:00:41;6.49;;;6.49;;
68942;SDS011;60852;52.190;4.422;2023-02-28T17:03:19;6.67;;;6.67;;
68942;SDS011;60852;52.190;4.422;2023-02-28T17:05:50;6.27;;;6.27;;
68942;SDS011;60852;52.190;4.422;2023-02-28T17:08:16;6.58;;;6.58;;